Time;durP1;ratioP1;P1;durP2;ratioP2;P2;SDS_P1;SDS_P2;PMS_P1;PMS_P2;Temp;Humidity;BMP_temperature;BMP_pressure;BME280_temperature;BME280_humidity;BME280_pressure;Samples;Min_cycle;Max_cycle;Signal;HPM_P1;HPM_P2
2022/11/21 00:00:59;;;;;;;84.45;31.90;;;;;;;;;;5032376;28;20030;-76
2022/11/21 00:03:26;;;;;;;89.45;32.75;;;;;;;;;;5014843;28;20029;-76
2022/11/21 00:05:52;;;;;;;94.50;38.22;;;;;;;;;;5032532;28;20117;-76
2022/11/21 00:08:19;;;;;;;91.35;34.85;;;;;;;;;;5015147;28;20025;-76
2022/11/21 00:10:46;;;;;;;93.72;34.53;;;;;;;;;;5032435;28;20476;-76
2022/11/21 00:13:13;;;;;;;94.15;35.60;;;;;;;;;;5032468;28;20072;-77
2022/11/21 00:15:39;;;;;;;87.97;34.13;;;;;;;;;;5019154;28;20041;-76
2022/11/21 00:18:05;;;;;;;89.97;32.50;;;;;;;;;;4995049;28;20381;-76
2022/11/21 00:20:31;;;;;;;82.85;32.83;;;;;;;;;;5020103;28;20100;-76
2022/11/21 00:22:57;;;;;;;82.20;32.72;;;;;;;;;;5022291;28;20361;-77
2022/11/21 00:25:23;;;;;;;80.28;31.55;;;;;;;;;;5017758;28;20088;-76
2022/11/21 00:27:50;;;;;;;80.35;31.90;;;;;;;;;;5024943;28;20017;-76
2022/11/21 00:30:16;;;;;;;72.43;29.95;;;;;;;;;;5032402;28;20017;-76
2022/11/21 00:32:42;;;;;;;74.20;31.30;;;;;;;;;;4997371;28;20033;-76
2022/11/21 00:35:08;;;;;;;100.50;40.42;;;;;;;;;;5012563;28;20362;-76
2022/11/21 00:37:34;;;;;;;100.20;42.72;;;;;;;;;;5012020;28;20053;-77
2022/11/21 00:40:00;;;;;;;82.93;33.42;;;;;;;;;;5028557;28;20052;-76
2022/11/21 00:42:26;;;;;;;78.22;32.72;;;;;;;;;;5031500;28;20445;-76
2022/11/21 00:44:52;;;;;;;81.20;32.63;;;;;;;;;;5031839;28;20029;-77
2022/11/21 00:47:18;;;;;;;86.47;32.03;;;;;;;;;;5013955;28;20045;-76
2022/11/21 00:49:44;;;;;;;75.80;30.65;;;;;;;;;;5031851;28;20025;-76
2022/11/21 00:52:10;;;;;;;74.70;30.20;;;;;;;;;;5031563;28;20491;-76
2022/11/21 00:54:36;;;;;;;78.20;29.98;;;;;;;;;;5013754;28;20044;-77
2022/11/21 00:57:02;;;;;;;72.72;31.20;;;;;;;;;;5031733;28;20029;-76
2022/11/21 00:59:28;;;;;;;75.22;30.48;;;;;;;;;;5031465;28;20127;-77
2022/11/21 01:01:54;;;;;;;71.32;28.25;;;;;;;;;;5013666;28;20034;-76
2022/11/21 01:04:20;;;;;;;80.30;30.45;;;;;;;;;;5031480;28;20044;-76
2022/11/21 01:06:47;;;;;;;79.88;32.17;;;;;;;;;;5013743;28;20036;-76
2022/11/21 01:09:13;;;;;;;72.32;29.63;;;;;;;;;;5031501;28;20460;-77
2022/11/21 01:11:39;;;;;;;84.82;30.75;;;;;;;;;;5031377;28;20046;-76
2022/11/21 01:14:05;;;;;;;72.70;30.08;;;;;;;;;;5031732;28;20030;-76
2022/11/21 01:16:31;;;;;;;80.55;30.42;;;;;;;;;;5031265;28;20022;-77
2022/11/21 01:18:57;;;;;;;83.82;29.50;;;;;;;;;;5031675;28;20033;-77
2022/11/21 01:21:23;;;;;;;76.03;29.67;;;;;;;;;;5030178;28;20091;-76
2022/11/21 01:23:50;;;;;;;81.45;31.05;;;;;;;;;;5031616;28;20029;-76
2022/11/21 01:26:17;;;;;;;85.45;31.30;;;;;;;;;;5026850;28;20029;-76
2022/11/21 01:28:44;;;;;;;68.90;29.30;;;;;;;;;;5028541;28;20045;-76
2022/11/21 01:31:14;;;;;;;89.70;32.92;;;;;;;;;;5027639;28;20165;-76
2022/11/21 01:33:40;;;;;;;93.78;31.95;;;;;;;;;;4994006;28;20033;-76
2022/11/21 01:36:17;;;;;;;90.43;31.52;;;;;;;;;;5011753;28;20030;-77
2022/11/21 01:38:46;;;;;;;84.68;31.20;;;;;;;;;;4996761;28;20037;-77
2022/11/21 01:41:13;;;;;;;84.32;30.80;;;;;;;;;;5011793;28;20026;-77
2022/11/21 01:43:39;;;;;;;87.93;32.20;;;;;;;;;;5018888;28;20476;-76
2022/11/21 01:46:11;;;;;;;78.13;30.77;;;;;;;;;;5035268;28;20029;-76
2022/11/21 01:48:37;;;;;;;83.20;32.65;;;;;;;;;;5035470;28;20101;-77
2022/11/21 01:51:12;;;;;;;98.32;34.35;;;;;;;;;;5034959;28;20116;-76
2022/11/21 01:53:41;;;;;;;98.45;32.30;;;;;;;;;;5035311;28;20111;-77
2022/11/21 01:56:08;;;;;;;90.82;32.65;;;;;;;;;;5034996;28;20065;-76
2022/11/21 01:58:35;;;;;;;87.97;31.95;;;;;;;;;;5035211;28;20029;-77
2022/11/21 02:01:02;;;;;;;91.53;33.25;;;;;;;;;;5035121;28;20041;-76
2022/11/21 02:03:30;;;;;;;87.38;31.98;;;;;;;;;;5035222;28;20030;-77
2022/11/21 02:05:57;;;;;;;91.97;32.25;;;;;;;;;;5035065;28;20022;-76
2022/11/21 02:08:24;;;;;;;95.25;32.22;;;;;;;;;;5034850;28;20068;-77
2022/11/21 02:10:58;;;;;;;98.25;34.20;;;;;;;;;;5034872;28;20476;-77
2022/11/21 02:13:24;;;;;;;82.43;30.70;;;;;;;;;;5034529;28;20018;-76
2022/11/21 02:15:50;;;;;;;91.28;31.90;;;;;;;;;;5034740;28;20029;-77
2022/11/21 02:18:16;;;;;;;97.95;34.95;;;;;;;;;;5034709;28;20033;-77
2022/11/21 02:20:44;;;;;;;87.38;33.33;;;;;;;;;;5029256;28;20056;-77
2022/11/21 02:23:20;;;;;;;97.63;35.50;;;;;;;;;;5034257;28;20026;-76
2022/11/21 02:25:46;;;;;;;100.63;33.42;;;;;;;;;;5033753;28;20028;-77
2022/11/21 02:28:15;;;;;;;91.93;32.30;;;;;;;;;;5017033;28;20112;-77
2022/11/21 02:30:41;;;;;;;91.40;32.22;;;;;;;;;;5034259;28;20026;-77
2022/11/21 02:33:08;;;;;;;101.85;36.90;;;;;;;;;;5014953;28;20113;-77
2022/11/21 02:35:34;;;;;;;88.18;34.78;;;;;;;;;;5014705;28;20499;-77
2022/11/21 02:38:03;;;;;;;104.22;35.95;;;;;;;;;;5014899;28;20025;-77
2022/11/21 02:40:32;;;;;;;86.57;33.42;;;;;;;;;;5034139;28;20028;-76
2022/11/21 02:43:01;;;;;;;118.40;35.03;;;;;;;;;;5034198;28;20030;-77
2022/11/21 02:45:30;;;;;;;93.38;33.03;;;;;;;;;;5034273;28;20043;-76
2022/11/21 02:47:56;;;;;;;88.28;32.25;;;;;;;;;;5034123;28;20105;-76
2022/11/21 02:50:24;;;;;;;91.38;34.30;;;;;;;;;;5034406;28;20545;-77
2022/11/21 02:52:50;;;;;;;97.75;32.90;;;;;;;;;;5034023;28;20108;-77
2022/11/21 02:55:17;;;;;;;98.90;34.22;;;;;;;;;;5033431;28;20049;-77
2022/11/21 02:57:43;;;;;;;111.85;32.30;;;;;;;;;;5016374;28;20476;-77
2022/11/21 03:00:10;;;;;;;91.07;31.17;;;;;;;;;;5016038;28;20052;-76
2022/11/21 03:02:36;;;;;;;86.25;31.05;;;;;;;;;;5034181;28;20022;-77
2022/11/21 03:05:03;;;;;;;87.65;30.40;;;;;;;;;;5033672;28;20033;-76
2022/11/21 03:07:29;;;;;;;88.90;31.35;;;;;;;;;;5033929;28;20376;-77
2022/11/21 03:09:56;;;;;;;93.97;31.63;;;;;;;;;;5033760;28;20376;-77
2022/11/21 03:12:22;;;;;;;94.85;30.40;;;;;;;;;;5033694;28;20025;-77
2022/11/21 03:14:48;;;;;;;92.00;31.77;;;;;;;;;;5033329;28;20044;-77
2022/11/21 03:17:14;;;;;;;87.20;29.70;;;;;;;;;;5033763;28;20072;-77
2022/11/21 03:19:40;;;;;;;110.72;31.17;;;;;;;;;;5033085;28;20112;-76
2022/11/21 03:22:06;;;;;;;86.72;29.67;;;;;;;;;;5028579;28;20034;-77
2022/11/21 03:24:32;;;;;;;85.30;30.10;;;;;;;;;;5013887;28;20069;-77
2022/11/21 03:26:58;;;;;;;75.43;27.85;;;;;;;;;;5029419;28;20088;-76
2022/11/21 03:29:24;;;;;;;79.97;30.83;;;;;;;;;;5013819;28;20021;-76
2022/11/21 03:31:50;;;;;;;85.15;29.38;;;;;;;;;;5023176;28;20079;-77
2022/11/21 03:34:16;;;;;;;74.80;28.00;;;;;;;;;;5033617;28;20088;-77
2022/11/21 03:36:42;;;;;;;89.35;29.02;;;;;;;;;;5033098;28;20029;-77
2022/11/21 03:39:09;;;;;;;82.68;29.95;;;;;;;;;;5005798;28;20037;-76
2022/11/21 03:41:35;;;;;;;90.68;31.98;;;;;;;;;;5013188;28;20026;-77
2022/11/21 03:44:03;;;;;;;88.43;29.77;;;;;;;;;;5023256;28;20583;-76
2022/11/21 03:46:30;;;;;;;96.43;30.13;;;;;;;;;;5032979;28;20541;-77
2022/11/21 03:48:56;;;;;;;91.93;30.33;;;;;;;;;;5033173;28;20075;-77
2022/11/21 03:51:22;;;;;;;92.97;29.83;;;;;;;;;;5032789;28;20032;-77
2022/11/21 03:53:48;;;;;;;95.25;30.05;;;;;;;;;;5033090;28;20030;-77
2022/11/21 03:56:14;;;;;;;111.78;33.67;;;;;;;;;;5032520;28;20176;-77
2022/11/21 03:58:40;;;;;;;119.35;32.33;;;;;;;;;;5043379;28;20162;-77
2022/11/21 04:01:06;;;;;;;93.70;29.23;;;;;;;;;;5052789;28;20025;-77
2022/11/21 04:03:33;;;;;;;113.57;31.50;;;;;;;;;;5052739;28;20023;-76
2022/11/21 04:05:59;;;;;;;179.10;37.58;;;;;;;;;;5052572;28;20044;-77
2022/11/21 04:08:25;;;;;;;110.88;32.03;;;;;;;;;;5051691;28;20043;-76
2022/11/21 04:10:52;;;;;;;97.70;29.60;;;;;;;;;;5034598;28;20029;-77
2022/11/21 04:13:18;;;;;;;114.60;30.45;;;;;;;;;;5052632;28;20033;-76
2022/11/21 04:15:45;;;;;;;113.15;31.52;;;;;;;;;;5022686;28;20427;-76
2022/11/21 04:18:11;;;;;;;139.38;30.27;;;;;;;;;;5032176;28;20032;-77
2022/11/21 04:20:38;;;;;;;90.25;26.50;;;;;;;;;;5013376;28;20467;-76
2022/11/21 04:23:04;;;;;;;100.13;28.02;;;;;;;;;;5021097;28;20100;-77
2022/11/21 04:25:30;;;;;;;118.38;29.52;;;;;;;;;;5001541;28;20492;-76
2022/11/21 04:27:57;;;;;;;135.57;29.45;;;;;;;;;;5025518;28;20033;-77
2022/11/21 04:30:23;;;;;;;125.95;30.52;;;;;;;;;;5032127;28;20018;-76
2022/11/21 04:32:53;;;;;;;110.38;29.45;;;;;;;;;;4996063;28;20034;-76
2022/11/21 04:35:20;;;;;;;106.45;28.98;;;;;;;;;;5012589;28;20076;-77
2022/11/21 04:37:46;;;;;;;233.80;30.75;;;;;;;;;;5012227;28;20065;-76
2022/11/21 04:40:12;;;;;;;128.10;30.67;;;;;;;;;;5031194;28;20538;-76
2022/11/21 04:42:45;;;;;;;139.95;29.42;;;;;;;;;;5031845;28;20037;-76
2022/11/21 04:45:12;;;;;;;159.23;30.30;;;;;;;;;;5032189;28;20114;-76
2022/11/21 04:47:39;;;;;;;106.38;26.15;;;;;;;;;;5031806;28;20037;-76
2022/11/21 04:50:05;;;;;;;135.85;30.30;;;;;;;;;;5032015;28;20024;-77
2022/11/21 04:52:31;;;;;;;123.90;27.88;;;;;;;;;;5031555;28;20083;-77
2022/11/21 04:54:58;;;;;;;236.43;32.05;;;;;;;;;;5031977;28;20053;-76
2022/11/21 04:57:24;;;;;;;293.15;33.38;;;;;;;;;;5031780;28;20052;-76
2022/11/21 04:59:50;;;;;;;144.63;29.65;;;;;;;;;;5031659;28;20017;-76
2022/11/21 05:02:16;;;;;;;130.38;29.85;;;;;;;;;;5013914;28;20029;-76
2022/11/21 05:04:42;;;;;;;152.82;34.70;;;;;;;;;;5014310;28;20032;-77
2022/11/21 05:07:08;;;;;;;184.82;35.05;;;;;;;;;;5013757;28;20025;-77
2022/11/21 05:09:34;;;;;;;257.25;33.20;;;;;;;;;;5031799;28;20033;-76
2022/11/21 05:14:45;;;;;;;232.38;34.25;;;;;;;;;;5027932;28;20069;-77
2022/11/21 05:17:11;;;;;;;186.85;30.17;;;;;;;;;;4994065;28;20022;-76
2022/11/21 05:19:37;;;;;;;212.75;31.52;;;;;;;;;;5014033;28;20030;-76
2022/11/21 05:22:03;;;;;;;172.45;30.58;;;;;;;;;;5026415;28;20033;-77
2022/11/21 05:24:29;;;;;;;362.48;40.92;;;;;;;;;;4978234;28;20089;-76
2022/11/21 05:26:55;;;;;;;183.90;30.17;;;;;;;;;;5024104;28;20455;-77
2022/11/21 05:29:21;;;;;;;158.95;29.33;;;;;;;;;;5031724;28;20026;-77
2022/11/21 05:31:47;;;;;;;277.00;33.92;;;;;;;;;;5021117;28;20035;-77
2022/11/21 05:34:13;;;;;;;267.85;33.67;;;;;;;;;;5011912;28;20026;-77
2022/11/21 05:36:39;;;;;;;125.65;29.02;;;;;;;;;;5011583;28;20080;-77
2022/11/21 05:39:05;;;;;;;140.00;28.60;;;;;;;;;;5021682;28;20040;-76
2022/11/21 05:41:31;;;;;;;189.55;29.27;;;;;;;;;;5031496;28;20431;-77
2022/11/21 05:43:57;;;;;;;241.40;33.05;;;;;;;;;;5031304;28;20041;-76
2022/11/21 05:46:25;;;;;;;181.13;33.53;;;;;;;;;;5031418;28;20033;-77
2022/11/21 05:48:51;;;;;;;204.02;33.05;;;;;;;;;;5031426;28;20038;-77
2022/11/21 05:51:18;;;;;;;169.23;31.63;;;;;;;;;;5031427;28;20030;-77
2022/11/21 05:53:44;;;;;;;206.15;33.42;;;;;;;;;;5031354;28;20087;-76
2022/11/21 05:56:11;;;;;;;131.55;31.27;;;;;;;;;;5031232;28;20107;-77
2022/11/21 05:58:38;;;;;;;163.45;30.83;;;;;;;;;;5013589;28;20021;-77
2022/11/21 06:01:05;;;;;;;272.88;32.95;;;;;;;;;;5013804;28;20022;-77
2022/11/21 06:03:32;;;;;;;291.77;34.67;;;;;;;;;;5031332;28;20144;-77
2022/11/21 06:06:01;;;;;;;193.35;33.40;;;;;;;;;;5031128;28;20049;-77
2022/11/21 06:08:28;;;;;;;184.60;34.60;;;;;;;;;;5013630;28;20443;-77
2022/11/21 06:10:54;;;;;;;197.65;37.70;;;;;;;;;;5013389;28;20036;-77
2022/11/21 06:13:23;;;;;;;165.45;32.10;;;;;;;;;;4997337;28;20129;-77
2022/11/21 06:15:58;;;;;;;158.95;31.65;;;;;;;;;;5027863;28;20416;-77
2022/11/21 06:18:24;;;;;;;232.18;35.08;;;;;;;;;;5031101;28;20488;-77
2022/11/21 06:20:51;;;;;;;254.07;34.45;;;;;;;;;;5030171;28;20053;-77
2022/11/21 06:23:17;;;;;;;155.70;30.95;;;;;;;;;;5017395;28;20029;-77
2022/11/21 06:25:43;;;;;;;172.07;32.00;;;;;;;;;;5019735;28;20032;-77
2022/11/21 06:28:10;;;;;;;181.70;31.83;;;;;;;;;;5023654;28;20037;-76
2022/11/21 06:30:36;;;;;;;153.13;31.45;;;;;;;;;;5022862;28;20472;-77
2022/11/21 06:33:03;;;;;;;354.13;36.33;;;;;;;;;;5006844;28;20033;-77
2022/11/21 06:35:29;;;;;;;136.57;29.40;;;;;;;;;;5005865;28;20428;-76
2022/11/21 06:37:57;;;;;;;123.45;29.25;;;;;;;;;;5023545;28;20148;-77
2022/11/21 06:40:23;;;;;;;255.68;34.70;;;;;;;;;;5034622;28;20021;-77
2022/11/21 06:42:49;;;;;;;221.65;33.55;;;;;;;;;;5034025;28;20040;-77
2022/11/21 06:45:15;;;;;;;166.05;31.23;;;;;;;;;;5034773;28;20051;-80
2022/11/21 06:47:41;;;;;;;168.60;31.52;;;;;;;;;;5035115;28;20535;-79
2022/11/21 06:50:08;;;;;;;187.45;33.90;;;;;;;;;;5027419;28;20062;-80
2022/11/21 06:52:34;;;;;;;213.75;32.33;;;;;;;;;;5024939;28;20399;-80
2022/11/21 06:55:00;;;;;;;158.88;31.13;;;;;;;;;;5022658;28;20041;-80
2022/11/21 06:57:26;;;;;;;380.95;39.42;;;;;;;;;;5035199;28;20559;-80
2022/11/21 06:59:52;;;;;;;165.30;32.70;;;;;;;;;;5020235;28;20088;-80
2022/11/21 07:02:18;;;;;;;304.65;34.70;;;;;;;;;;5015502;28;20117;-80
2022/11/21 07:04:44;;;;;;;347.40;39.67;;;;;;;;;;5017541;28;20041;-80
2022/11/21 07:07:11;;;;;;;235.88;34.75;;;;;;;;;;5010775;28;20720;-80
2022/11/21 07:09:37;;;;;;;167.75;34.33;;;;;;;;;;5017381;28;20373;-80
2022/11/21 07:14:47;;;;;;;143.52;33.05;;;;;;;;;;5002230;28;20096;-80
2022/11/21 07:17:14;;;;;;;154.50;34.08;;;;;;;;;;5015224;28;20021;-80
2022/11/21 07:19:40;;;;;;;164.68;35.65;;;;;;;;;;5015889;28;20035;-80
2022/11/21 07:22:07;;;;;;;132.48;33.08;;;;;;;;;;5031269;28;20029;-80
2022/11/21 07:24:33;;;;;;;174.68;34.50;;;;;;;;;;5033605;28;20029;-80
2022/11/21 07:27:00;;;;;;;206.43;37.17;;;;;;;;;;5015163;28;20538;-81
2022/11/21 07:29:26;;;;;;;136.98;32.42;;;;;;;;;;5014982;28;20030;-81
2022/11/21 07:31:54;;;;;;;241.60;37.67;;;;;;;;;;5014777;28;20117;-81
2022/11/21 07:34:20;;;;;;;170.88;34.38;;;;;;;;;;5014842;28;20029;-80
2022/11/21 07:36:46;;;;;;;138.82;32.20;;;;;;;;;;5014849;28;20029;-80
2022/11/21 07:39:12;;;;;;;156.40;33.38;;;;;;;;;;5025991;28;20062;-80
2022/11/21 07:41:38;;;;;;;129.30;32.25;;;;;;;;;;5034403;28;20152;-80
2022/11/21 07:44:04;;;;;;;128.07;30.88;;;;;;;;;;5023074;28;20079;-80
2022/11/21 07:46:30;;;;;;;172.77;35.38;;;;;;;;;;5014796;28;20030;-80
2022/11/21 07:48:56;;;;;;;131.40;32.25;;;;;;;;;;5014643;28;20080;-80
2022/11/21 07:51:22;;;;;;;125.97;32.05;;;;;;;;;;5014248;28;20037;-80
2022/11/21 07:53:48;;;;;;;130.82;31.55;;;;;;;;;;5014285;28;20030;-80
2022/11/21 07:56:14;;;;;;;144.57;32.90;;;;;;;;;;4996711;28;20075;-81
2022/11/21 07:58:40;;;;;;;121.65;29.67;;;;;;;;;;5015183;28;20083;-81
2022/11/21 08:01:07;;;;;;;125.80;31.52;;;;;;;;;;5034017;28;20033;-81
2022/11/21 08:03:33;;;;;;;121.97;30.38;;;;;;;;;;5015304;28;20040;-81
2022/11/21 08:06:04;;;;;;;121.55;30.98;;;;;;;;;;5014241;28;20132;-80
2022/11/21 08:08:30;;;;;;;108.18;30.13;;;;;;;;;;4998627;28;20026;-80
2022/11/21 08:10:57;;;;;;;109.45;29.60;;;;;;;;;;5021959;28;20026;-80
2022/11/21 08:13:23;;;;;;;154.95;33.65;;;;;;;;;;5008725;28;20487;-80
2022/11/21 08:15:49;;;;;;;142.88;31.80;;;;;;;;;;5016155;28;20030;-80
2022/11/21 08:18:19;;;;;;;127.95;30.17;;;;;;;;;;4995860;28;20038;-80
2022/11/21 08:20:45;;;;;;;153.18;31.27;;;;;;;;;;5023084;28;20027;-81
2022/11/21 08:23:11;;;;;;;112.38;28.17;;;;;;;;;;5039449;28;20089;-88
2022/11/21 08:25:38;;;;;;;105.85;27.25;;;;;;;;;;5034145;28;20533;-80
2022/11/21 08:28:05;;;;;;;107.13;27.52;;;;;;;;;;5015580;28;20032;-80
2022/11/21 08:30:31;;;;;;;98.22;26.65;;;;;;;;;;5032006;28;20037;-80
2022/11/21 08:32:58;;;;;;;103.78;28.23;;;;;;;;;;5032190;28;20028;-80
2022/11/21 08:35:28;;;;;;;94.13;28.05;;;;;;;;;;5032217;28;20041;-80
2022/11/21 08:37:58;;;;;;;93.78;26.63;;;;;;;;;;5010298;28;20128;-80
2022/11/21 08:40:24;;;;;;;94.35;25.58;;;;;;;;;;5029947;28;20094;-80
2022/11/21 08:43:01;;;;;;;79.28;23.85;;;;;;;;;;5028552;28;20025;-80
2022/11/21 08:45:27;;;;;;;79.65;23.25;;;;;;;;;;5029140;28;20022;-80
2022/11/21 08:47:53;;;;;;;90.57;22.35;;;;;;;;;;5020500;28;20026;-80
2022/11/21 08:50:19;;;;;;;78.93;22.45;;;;;;;;;;5009330;28;20041;-81
2022/11/21 08:52:45;;;;;;;105.20;26.13;;;;;;;;;;5032566;28;20029;-80
2022/11/21 08:55:12;;;;;;;102.95;25.52;;;;;;;;;;5033069;28;20464;-82
2022/11/21 08:57:38;;;;;;;121.43;27.73;;;;;;;;;;5037801;28;20037;-81
2022/11/21 09:00:05;;;;;;;108.25;27.52;;;;;;;;;;5017295;28;20026;-81
2022/11/21 09:02:31;;;;;;;120.10;28.50;;;;;;;;;;5049669;28;20033;-80
2022/11/21 09:04:57;;;;;;;114.50;28.30;;;;;;;;;;5049776;28;20056;-81
2022/11/21 09:07:23;;;;;;;106.20;28.02;;;;;;;;;;5031148;28;20611;-80
2022/11/21 09:09:49;;;;;;;155.48;29.70;;;;;;;;;;5029951;28;20018;-80
2022/11/21 09:12:15;;;;;;;146.32;31.05;;;;;;;;;;5029481;28;20060;-81
2022/11/21 09:20:11;;;;;;;145.55;31.08;;;;;;;;;;5030785;28;20045;-81
2022/11/21 09:22:37;;;;;;;147.50;30.80;;;;;;;;;;5027261;28;20030;-81
2022/11/21 09:25:03;;;;;;;152.85;31.95;;;;;;;;;;5020632;28;20447;-81
2022/11/21 09:27:30;;;;;;;168.35;31.80;;;;;;;;;;5025593;28;20037;-81
2022/11/21 09:29:56;;;;;;;124.15;30.52;;;;;;;;;;5025006;28;20399;-81
2022/11/21 09:32:22;;;;;;;126.95;29.20;;;;;;;;;;5043068;28;20104;-81
2022/11/21 09:34:48;;;;;;;128.93;31.73;;;;;;;;;;5008161;28;20036;-81
2022/11/21 09:37:14;;;;;;;95.80;28.98;;;;;;;;;;5024780;28;20037;-81
2022/11/21 09:39:40;;;;;;;139.55;30.52;;;;;;;;;;5043231;28;20379;-81
2022/11/21 09:42:26;;;;;;;93.78;27.33;;;;;;;;;;5007984;28;20041;-81
2022/11/21 09:44:58;;;;;;;114.95;27.98;;;;;;;;;;5024040;28;20383;-81
2022/11/21 09:47:31;;;;;;;115.97;28.92;;;;;;;;;;5022127;28;20030;-81
2022/11/21 09:50:05;;;;;;;108.63;27.98;;;;;;;;;;5039769;28;20026;-80
2022/11/21 09:52:51;;;;;;;99.72;26.63;;;;;;;;;;5040168;28;20018;-81
2022/11/21 09:55:42;;;;;;;104.78;27.83;;;;;;;;;;5021052;28;20384;-81
2022/11/21 09:58:28;;;;;;;79.53;25.90;;;;;;;;;;5009620;28;20065;-81
2022/11/21 10:00:54;;;;;;;82.95;24.23;;;;;;;;;;4977331;28;20397;-81
2022/11/21 10:03:22;;;;;;;101.70;27.30;;;;;;;;;;4997037;28;20496;-78
2022/11/21 10:05:51;;;;;;;82.72;27.13;;;;;;;;;;4996148;28;20476;-80
2022/11/21 10:08:26;;;;;;;85.95;26.02;;;;;;;;;;4996976;28;20023;-79
2022/11/21 10:11:04;;;;;;;92.68;25.70;;;;;;;;;;4996872;28;20026;-79
2022/11/21 10:13:36;;;;;;;101.07;27.02;;;;;;;;;;4996813;28;20034;-79
2022/11/21 10:16:05;;;;;;;83.20;26.58;;;;;;;;;;4992035;28;20037;-79
2022/11/21 10:18:40;;;;;;;97.28;28.40;;;;;;;;;;4985470;28;20515;-79
2022/11/21 10:21:25;;;;;;;103.40;28.70;;;;;;;;;;4991460;28;20046;-79
2022/11/21 10:24:06;;;;;;;109.57;28.67;;;;;;;;;;4981886;28;20517;-79
2022/11/21 10:26:49;;;;;;;89.22;27.17;;;;;;;;;;4988576;28;20030;-79
2022/11/21 10:29:18;;;;;;;115.10;29.85;;;;;;;;;;4989518;28;20027;-78
2022/11/21 10:31:44;;;;;;;113.38;28.92;;;;;;;;;;4988067;28;20028;-81
2022/11/21 10:34:12;;;;;;;122.28;29.65;;;;;;;;;;4990858;28;20019;-77
2022/11/21 10:36:43;;;;;;;101.28;28.65;;;;;;;;;;4995268;28;20089;-77
2022/11/21 10:39:19;;;;;;;91.18;28.80;;;;;;;;;;4995386;28;20523;-77
2022/11/21 10:42:03;;;;;;;120.95;32.17;;;;;;;;;;4991429;28;20026;-77
2022/11/21 10:47:36;;;;;;;96.05;30.10;;;;;;;;;;4989303;28;20073;-77
2022/11/21 10:50:08;;;;;;;119.28;30.98;;;;;;;;;;4995348;28;20420;-78
2022/11/21 10:52:36;;;;;;;103.85;30.77;;;;;;;;;;4995451;28;20077;-77
2022/11/21 10:55:02;;;;;;;107.43;29.13;;;;;;;;;;4994666;28;20477;-76
2022/11/21 10:57:30;;;;;;;116.35;29.88;;;;;;;;;;5001441;28;20099;-76
2022/11/21 11:00:00;;;;;;;109.95;30.50;;;;;;;;;;5034323;28;20026;-76
2022/11/21 11:02:26;;;;;;;111.57;30.42;;;;;;;;;;5034119;28;20519;-76
2022/11/21 11:05:11;;;;;;;105.70;30.35;;;;;;;;;;5034113;28;20029;-76
2022/11/21 11:07:37;;;;;;;102.30;29.73;;;;;;;;;;5033657;28;20041;-76
2022/11/21 11:10:22;;;;;;;90.20;28.60;;;;;;;;;;5018395;28;20084;-76
2022/11/21 11:15:34;;;;;;;111.35;29.95;;;;;;;;;;5039828;28;20036;-76
2022/11/21 11:18:02;;;;;;;106.75;31.20;;;;;;;;;;5014240;28;20063;-76
2022/11/21 11:20:34;;;;;;;104.10;31.35;;;;;;;;;;5025907;28;20425;-76
2022/11/21 11:23:00;;;;;;;102.15;30.70;;;;;;;;;;5025622;28;20133;-76
2022/11/21 11:25:26;;;;;;;111.43;30.15;;;;;;;;;;5026913;28;20029;-76
2022/11/21 11:27:55;;;;;;;117.47;31.33;;;;;;;;;;5007306;28;20104;-76
2022/11/21 11:30:21;;;;;;;105.32;30.23;;;;;;;;;;5016188;28;20037;-76
2022/11/21 11:32:47;;;;;;;103.70;29.60;;;;;;;;;;4996179;28;20368;-76
2022/11/21 11:35:13;;;;;;;91.40;30.17;;;;;;;;;;5018101;28;20350;-76
2022/11/21 11:37:40;;;;;;;100.43;30.67;;;;;;;;;;5033018;28;20033;-76
2022/11/21 11:40:06;;;;;;;87.57;29.15;;;;;;;;;;5014558;28;20108;-78
2022/11/21 11:48:15;;;;;;;95.75;30.10;;;;;;;;;;5023711;28;20088;-77
2022/11/21 11:50:47;;;;;;;78.47;28.23;;;;;;;;;;5029919;28;20083;-77
2022/11/21 11:53:21;;;;;;;73.68;28.30;;;;;;;;;;5019879;28;20029;-78
2022/11/21 11:55:52;;;;;;;84.70;29.40;;;;;;;;;;5024026;28;20026;-77
2022/11/21 11:58:31;;;;;;;82.63;29.83;;;;;;;;;;5022033;28;20049;-77
2022/11/21 12:01:03;;;;;;;79.07;29.00;;;;;;;;;;5030483;28;20059;-78
2022/11/21 12:03:46;;;;;;;76.38;28.13;;;;;;;;;;5025450;28;20030;-78
2022/11/21 12:06:16;;;;;;;94.10;29.42;;;;;;;;;;5026969;28;20025;-79
2022/11/21 12:08:58;;;;;;;71.20;29.60;;;;;;;;;;5033640;28;20022;-78
2022/11/21 12:17:16;;;;;;;;;;;;;;;;;;5021447;28;20630;-78
2022/11/21 12:19:42;;;;;;;78.80;31.63;;;;;;;;;;5021684;28;19913;-78
2022/11/21 12:22:10;;;;;;;71.47;29.70;;;;;;;;;;5023747;28;20037;-78
2022/11/21 12:24:36;;;;;;;66.07;27.98;;;;;;;;;;5026430;28;20135;-78
2022/11/21 12:27:14;;;;;;;67.30;27.77;;;;;;;;;;5026467;28;20014;-78
2022/11/21 12:29:59;;;;;;;72.30;27.55;;;;;;;;;;5012451;28;20030;-78
2022/11/21 12:32:32;;;;;;;61.45;26.00;;;;;;;;;;5015009;28;20115;-78
2022/11/21 12:34:58;;;;;;;;;;;;;;;;;;5033077;28;20055;-78
2022/11/21 12:37:47;;;;;;;57.28;25.17;;;;;;;;;;5022359;28;19913;-78
2022/11/21 12:40:13;;;;;;;69.05;25.15;;;;;;;;;;5028274;28;20017;-79
2022/11/21 12:42:48;;;;;;;62.47;24.70;;;;;;;;;;5029658;28;20383;-79
2022/11/21 12:45:25;;;;;;;58.80;24.50;;;;;;;;;;5018853;28;20025;-79
2022/11/21 12:56:39;;;;;;;43.08;21.60;;;;;;;;;;5031545;28;20084;-78
2022/11/21 12:59:07;;;;;;;46.05;20.73;;;;;;;;;;5014238;28;20042;-78
2022/11/21 13:01:33;;;;;;;49.42;22.65;;;;;;;;;;5022375;28;20037;-78
2022/11/21 13:04:01;;;;;;;45.17;21.05;;;;;;;;;;5023822;28;20387;-79
2022/11/21 13:06:28;;;;;;;45.97;21.80;;;;;;;;;;5023854;28;20026;-78
2022/11/21 13:08:57;;;;;;;60.78;21.42;;;;;;;;;;5026453;28;20026;-78
2022/11/21 13:14:26;;;;;;;50.50;22.52;;;;;;;;;;5027453;28;20060;-78
2022/11/21 13:16:53;;;;;;;;;;;;;;;;;;5002294;28;20332;-78
2022/11/21 13:19:23;;;;;;;52.28;22.50;;;;;;;;;;5021475;28;19928;-78
2022/11/21 13:21:51;;;;;;;51.40;22.35;;;;;;;;;;5027931;28;20029;-78
2022/11/21 13:24:36;;;;;;;50.90;21.85;;;;;;;;;;5013507;28;20026;-78
2022/11/21 13:27:02;;;;;;;45.05;19.88;;;;;;;;;;5011005;28;20072;-78
2022/11/21 13:29:28;;;;;;;42.22;20.25;;;;;;;;;;5014851;28;20033;-78
2022/11/21 13:31:54;;;;;;;47.20;20.98;;;;;;;;;;5031859;28;20052;-78
2022/11/21 13:34:40;;;;;;;39.25;18.83;;;;;;;;;;5021496;28;20083;-78
2022/11/21 13:37:06;;;;;;;39.58;19.35;;;;;;;;;;5019551;28;20029;-78
2022/11/21 13:39:33;;;;;;;40.83;20.20;;;;;;;;;;5021478;28;20504;-78
2022/11/21 13:44:52;;;;;;;43.20;20.23;;;;;;;;;;5031268;28;20099;-78
2022/11/21 13:47:24;;;;;;;43.17;19.63;;;;;;;;;;5028770;28;20250;-78
2022/11/21 13:50:16;;;;;;;33.90;18.45;;;;;;;;;;5036790;28;20025;-78
2022/11/21 13:52:46;;;;;;;39.95;18.73;;;;;;;;;;5017855;28;20037;-79
2022/11/21 13:55:15;;;;;;;34.90;17.80;;;;;;;;;;5028826;28;20036;-78
2022/11/21 13:57:41;;;;;;;37.50;18.38;;;;;;;;;;5018218;28;20045;-79
2022/11/21 14:00:17;;;;;;;36.17;18.50;;;;;;;;;;5036439;28;20052;-78
2022/11/21 14:02:58;;;;;;;36.67;17.10;;;;;;;;;;5036208;28;20476;-78
2022/11/21 14:05:34;;;;;;;39.15;17.10;;;;;;;;;;5036163;28;20037;-79
2022/11/21 14:08:16;;;;;;;38.55;17.65;;;;;;;;;;5036093;28;20025;-78
2022/11/21 14:10:44;;;;;;;29.95;16.05;;;;;;;;;;5036249;28;20021;-79
2022/11/21 14:13:19;;;;;;;31.10;14.77;;;;;;;;;;5036230;28;20025;-78
2022/11/21 14:15:50;;;;;;;30.83;14.88;;;;;;;;;;5018156;28;20379;-78
2022/11/21 14:18:21;;;;;;;32.53;15.30;;;;;;;;;;5035669;28;20029;-78
2022/11/21 14:20:52;;;;;;;37.95;16.98;;;;;;;;;;5035484;28;20100;-78
2022/11/21 14:23:22;;;;;;;31.42;15.60;;;;;;;;;;5020345;28;20080;-78
2022/11/21 14:25:49;;;;;;;29.95;15.52;;;;;;;;;;5023659;28;20440;-79
2022/11/21 14:28:17;;;;;;;33.58;15.75;;;;;;;;;;5035621;28;20041;-79
2022/11/21 14:30:43;;;;;;;34.15;16.13;;;;;;;;;;5031873;28;20487;-78
2022/11/21 14:33:22;;;;;;;39.83;16.80;;;;;;;;;;5035479;28;20823;-79
2022/11/21 14:35:49;;;;;;;27.52;14.48;;;;;;;;;;5035145;28;20464;-79
2022/11/21 14:38:15;;;;;;;35.88;15.75;;;;;;;;;;5035480;28;20021;-78
2022/11/21 14:40:41;;;;;;;29.17;15.50;;;;;;;;;;5035180;28;20459;-79
2022/11/21 14:43:25;;;;;;;29.67;14.88;;;;;;;;;;5035143;28;20490;-78
2022/11/21 14:45:52;;;;;;;45.30;14.90;;;;;;;;;;5034440;28;20036;-78
2022/11/21 14:48:25;;;;;;;31.42;14.70;;;;;;;;;;5054017;28;20032;-79
2022/11/21 14:50:53;;;;;;;31.42;14.85;;;;;;;;;;5053059;28;20499;-78
2022/11/21 14:53:19;;;;;;;26.67;14.77;;;;;;;;;;5053343;28;20804;-78
2022/11/21 14:55:50;;;;;;;29.90;13.95;;;;;;;;;;5041013;28;20554;-78
2022/11/21 14:58:16;;;;;;;33.75;14.23;;;;;;;;;;5035237;28;20091;-79
2022/11/21 15:01:01;;;;;;;28.40;14.55;;;;;;;;;;5027854;28;20030;-78